Time;durP1;ratioP1;P1;durP2;ratioP2;P2;SDS_P1;SDS_P2;PMS_P1;PMS_P2;Temp;Humidity;BMP_temperature;BMP_pressure;BME280_temperature;BME280_humidity;BME280_pressure;Samples;Min_cycle;Max_cycle;Signal;HPM_P1;HPM_P2
2023/03/19 00:02:13;;;;;;;26.47;18.37;;;;;;;41.07;33.79;101050.66;4994569;28;20460;-86
2023/03/19 00:04:39;;;;;;;27.10;17.40;;;;;;;41.13;33.28;101029.50;4994775;28;20463;-86
2023/03/19 00:07:05;;;;;;;34.37;18.57;;;;;;;41.22;32.91;101019.38;4995495;28;20539;-86
2023/03/19 00:09:31;;;;;;;29.87;16.40;;;;;;;41.24;33.09;101014.38;4999152;28;20519;-87
2023/03/19 00:11:57;;;;;;;21.87;15.20;;;;;;;41.18;33.36;101007.53;4998197;28;20444;-86
2023/03/19 00:14:23;;;;;;;26.70;17.07;;;;;;;41.05;33.65;101003.09;5016469;28;20420;-86
2023/03/19 00:16:49;;;;;;;30.57;16.20;;;;;;;41.06;33.53;100997.31;4998296;28;20431;-88
2023/03/19 00:19:16;;;;;;;26.97;17.73;;;;;;;41.02;33.66;100995.59;4998324;28;20430;-88
2023/03/19 00:21:42;;;;;;;28.77;17.27;;;;;;;41.05;33.70;100979.41;4998438;28;20463;-88
2023/03/19 00:24:09;;;;;;;25.20;17.30;;;;;;;41.04;33.46;100990.63;4998775;28;20507;-88
2023/03/19 00:26:36;;;;;;;27.13;16.40;;;;;;;40.96;33.55;100994.16;4995340;28;20416;-88
2023/03/19 00:29:03;;;;;;;25.33;17.10;;;;;;;41.00;33.84;100985.00;4997906;28;20424;-88
2023/03/19 00:31:30;;;;;;;37.13;15.50;;;;;;;40.96;33.66;100988.72;4998175;28;20412;-88
2023/03/19 00:33:58;;;;;;;26.53;15.93;;;;;;;41.02;33.63;100998.31;4998022;28;20867;-88
2023/03/19 00:36:27;;;;;;;29.50;15.07;;;;;;;41.10;33.10;100999.41;4998122;28;20415;-88
2023/03/19 00:38:53;;;;;;;29.90;16.60;;;;;;;41.20;33.26;101004.50;4998217;28;20420;-88
2023/03/19 00:41:19;;;;;;;28.07;14.60;;;;;;;41.19;32.98;100997.44;4986766;28;20480;-88
2023/03/19 00:43:46;;;;;;;25.03;15.53;;;;;;;41.11;33.49;101001.78;4998176;28;20507;-88
2023/03/19 00:46:13;;;;;;;20.90;13.77;;;;;;;41.05;33.73;100998.44;5014593;28;20559;-88
2023/03/19 00:48:39;;;;;;;28.77;15.63;;;;;;;41.10;33.40;100991.25;4997765;28;20427;-88
2023/03/19 00:51:08;;;;;;;24.17;16.37;;;;;;;41.04;33.40;100994.13;4997914;28;20629;-88
2023/03/19 00:53:38;;;;;;;23.30;14.17;;;;;;;41.05;33.13;100984.84;4997722;28;20486;-88
2023/03/19 00:56:06;;;;;;;27.63;14.93;;;;;;;41.02;33.11;100976.53;4997985;28;20428;-88
2023/03/19 00:58:32;;;;;;;23.37;15.20;;;;;;;40.85;33.21;100979.28;4997804;28;20956;-88
2023/03/19 01:00:59;;;;;;;21.13;14.67;;;;;;;40.97;33.26;100982.16;4997670;28;20460;-88
2023/03/19 01:03:25;;;;;;;20.27;13.47;;;;;;;40.89;33.06;100977.53;4997657;28;20833;-88
2023/03/19 01:05:51;;;;;;;27.63;14.73;;;;;;;40.86;33.16;100978.16;5015361;28;20444;-88
2023/03/19 01:08:18;;;;;;;32.40;15.83;;;;;;;40.80;33.56;100972.88;4997206;28;20450;-87
2023/03/19 01:10:45;;;;;;;26.53;14.83;;;;;;;40.84;33.58;100973.03;4997722;28;20189;-88
2023/03/19 01:13:12;;;;;;;25.37;15.50;;;;;;;40.84;33.38;100977.69;4997236;28;20478;-88
2023/03/19 01:15:42;;;;;;;21.43;14.33;;;;;;;40.87;33.25;100975.09;4997723;28;20474;-88
2023/03/19 01:18:10;;;;;;;22.23;13.57;;;;;;;40.91;33.35;100978.00;4996966;28;20956;-88
2023/03/19 01:20:39;;;;;;;20.97;14.17;;;;;;;40.87;33.02;100975.09;4997327;28;20456;-87
2023/03/19 01:23:06;;;;;;;22.67;13.00;;;;;;;40.94;33.11;100977.34;4997169;28;20421;-88
2023/03/19 01:25:32;;;;;;;23.10;14.90;;;;;;;40.97;32.75;100985.69;4997425;28;20416;-88
2023/03/19 01:27:58;;;;;;;28.97;14.37;;;;;;;40.89;32.94;100970.16;5015072;28;20436;-86
2023/03/19 01:30:24;;;;;;;26.67;15.37;;;;;;;40.91;32.96;100969.84;4988990;28;20458;-86
2023/03/19 01:32:50;;;;;;;20.77;14.20;;;;;;;40.84;33.13;100972.25;4995111;28;20556;-86
2023/03/19 01:35:16;;;;;;;22.63;14.47;;;;;;;40.83;32.80;100974.16;4997303;28;20244;-86
2023/03/19 01:37:42;;;;;;;27.10;14.67;;;;;;;40.86;33.19;100972.72;4997043;28;20429;-86
2023/03/19 01:40:12;;;;;;;24.63;15.70;;;;;;;40.90;33.39;100976.38;4997263;28;20783;-86
2023/03/19 01:42:55;;;;;;;21.87;16.33;;;;;;;40.66;33.28;100971.47;4996558;28;20728;-86
2023/03/19 01:45:33;;;;;;;26.93;14.97;;;;;;;40.71;33.38;100980.28;5013195;28;20445;-87
2023/03/19 01:48:00;;;;;;;26.00;17.00;;;;;;;40.65;33.29;100984.28;4996970;28;20420;-86
2023/03/19 01:50:42;;;;;;;23.67;15.33;;;;;;;40.66;33.50;100991.31;4996544;28;20843;-87
2023/03/19 01:53:11;;;;;;;25.10;14.57;;;;;;;40.54;33.97;100991.16;4996945;28;20444;-88
2023/03/19 01:55:38;;;;;;;26.00;13.93;;;;;;;40.57;33.40;100982.34;4996595;28;20425;-88
2023/03/19 01:58:06;;;;;;;27.30;15.07;;;;;;;40.52;33.41;100977.91;4996570;28;20445;-88
2023/03/19 02:00:34;;;;;;;25.60;15.60;;;;;;;40.63;32.95;100972.09;4996383;28;20957;-88
2023/03/19 02:03:01;;;;;;;35.27;15.90;;;;;;;40.66;33.28;100983.16;4996746;28;20803;-88
2023/03/19 02:05:28;;;;;;;24.57;15.13;;;;;;;40.50;33.60;100973.88;4996414;28;20952;-87
2023/03/19 02:07:59;;;;;;;23.83;12.90;;;;;;;40.40;33.52;100972.28;5012916;28;20471;-86
2023/03/19 02:10:27;;;;;;;22.30;14.90;;;;;;;40.37;33.63;100964.75;5014173;28;20976;-87
2023/03/19 02:12:53;;;;;;;24.30;14.83;;;;;;;40.43;33.52;100962.69;4996048;28;20504;-86
2023/03/19 02:15:19;;;;;;;26.60;15.03;;;;;;;40.35;33.38;100955.34;4996492;28;20464;-87
2023/03/19 02:17:46;;;;;;;27.13;13.40;;;;;;;40.39;33.45;100953.56;5014375;28;20483;-87
2023/03/19 02:20:45;;;;;;;22.47;15.00;;;;;;;40.35;33.70;100950.69;4996341;28;20428;-86
2023/03/19 02:23:35;;;;;;;23.90;14.60;;;;;;;40.32;33.50;100958.69;4973058;28;20504;-87
2023/03/19 02:26:14;;;;;;;26.27;14.77;;;;;;;40.42;33.45;100961.09;5012436;28;20431;-86
2023/03/19 02:28:43;;;;;;;25.07;16.77;;;;;;;40.32;33.82;100959.47;4996219;28;20427;-87
2023/03/19 02:31:10;;;;;;;24.07;15.20;;;;;;;40.37;33.83;100956.59;5011558;28;20424;-86
2023/03/19 02:33:36;;;;;;;23.67;14.80;;;;;;;40.26;33.84;100958.84;5012535;28;20420;-88
2023/03/19 02:36:05;;;;;;;25.43;14.40;;;;;;;40.32;33.94;100950.53;4995908;28;20431;-88
2023/03/19 02:38:33;;;;;;;22.27;14.63;;;;;;;40.29;33.70;100955.50;4995471;28;20432;-88
2023/03/19 02:41:07;;;;;;;24.30;13.43;;;;;;;40.43;33.73;100949.09;5013025;28;20505;-88
2023/03/19 02:43:36;;;;;;;22.63;14.33;;;;;;;40.27;34.22;100948.78;5012203;28;20424;-88
2023/03/19 02:46:04;;;;;;;34.40;14.33;;;;;;;40.23;33.75;100945.91;4995666;28;20424;-88
2023/03/19 02:48:31;;;;;;;26.97;15.27;;;;;;;40.14;33.78;100938.84;5012894;28;20814;-88
2023/03/19 02:50:58;;;;;;;24.43;15.00;;;;;;;40.24;34.21;100950.22;4992430;28;20813;-87
2023/03/19 02:53:24;;;;;;;32.70;17.70;;;;;;;40.18;34.34;100945.25;4989556;28;21048;-88
2023/03/19 02:55:50;;;;;;;26.23;15.80;;;;;;;40.16;34.06;100951.03;4983006;28;20435;-88
2023/03/19 02:58:16;;;;;;;29.03;15.97;;;;;;;40.14;34.22;100945.09;4995576;28;20436;-87
2023/03/19 03:00:42;;;;;;;32.50;15.10;;;;;;;40.07;34.39;100935.81;4994798;28;20562;-86
2023/03/19 03:03:08;;;;;;;30.33;14.10;;;;;;;40.11;33.58;100925.94;4995698;28;20495;-86
2023/03/19 03:05:35;;;;;;;22.80;13.73;;;;;;;40.06;33.93;100926.88;4995449;28;21034;-86
2023/03/19 03:08:03;;;;;;;32.63;15.33;;;;;;;40.04;33.63;100920.97;4995572;28;20948;-87
2023/03/19 03:10:29;;;;;;;23.03;13.10;;;;;;;40.05;34.08;100928.00;4995810;28;21014;-87
2023/03/19 03:12:55;;;;;;;22.00;12.10;;;;;;;40.06;33.63;100923.38;5011491;28;20848;-86
2023/03/19 03:15:21;;;;;;;32.47;13.17;;;;;;;40.10;33.74;100921.63;4995262;28;20976;-87
2023/03/19 03:17:48;;;;;;;26.67;16.63;;;;;;;40.13;33.71;100910.88;4995324;28;20425;-86
2023/03/19 03:20:16;;;;;;;24.10;14.07;;;;;;;40.23;33.58;100918.72;4994977;28;20533;-86
2023/03/19 03:22:43;;;;;;;21.30;12.90;;;;;;;40.17;33.71;100921.94;5011603;28;20491;-86
2023/03/19 03:25:10;;;;;;;19.20;12.50;;;;;;;40.23;33.27;100924.16;4983406;28;20828;-86
2023/03/19 03:27:37;;;;;;;21.20;15.00;;;;;;;40.16;33.52;100915.69;5012635;28;20484;-86
2023/03/19 03:30:06;;;;;;;20.50;13.00;;;;;;;40.18;33.41;100918.09;5011590;28;20432;-86
2023/03/19 03:32:33;;;;;;;21.60;12.27;;;;;;;40.14;33.17;100914.41;4994514;28;20941;-86
2023/03/19 03:34:59;;;;;;;20.63;14.10;;;;;;;40.06;33.47;100913.28;5011514;28;20421;-86
2023/03/19 03:37:25;;;;;;;22.07;13.97;;;;;;;40.11;33.90;100915.06;4994545;28;20451;-86
2023/03/19 03:39:52;;;;;;;24.80;14.67;;;;;;;40.07;33.75;100914.09;5011469;28;20417;-86
2023/03/19 03:42:18;;;;;;;21.90;13.40;;;;;;;39.91;33.83;100917.25;5011835;28;20483;-86
2023/03/19 03:44:44;;;;;;;23.57;15.27;;;;;;;39.97;33.62;100923.34;4994727;28;20962;-86
2023/03/19 03:47:10;;;;;;;29.00;13.83;;;;;;;39.92;33.89;100918.84;4994613;28;20515;-86
2023/03/19 03:49:36;;;;;;;24.30;14.97;;;;;;;39.94;33.67;100927.47;4994821;28;20213;-86
2023/03/19 03:52:02;;;;;;;26.37;16.67;;;;;;;39.98;33.59;100914.06;4994132;28;20480;-86
2023/03/19 03:54:28;;;;;;;27.10;17.37;;;;;;;39.93;33.96;100925.09;4994895;28;20560;-87
2023/03/19 03:56:54;;;;;;;27.43;17.13;;;;;;;40.08;33.59;100923.84;4994486;28;20928;-86
2023/03/19 03:59:20;;;;;;;28.70;19.57;;;;;;;40.02;33.81;100934.03;4994899;28;20428;-88
2023/03/19 04:01:46;;;;;;;25.20;16.83;;;;;;;40.08;33.63;100921.13;5011973;28;21039;-88
2023/03/19 04:04:14;;;;;;;35.60;18.23;;;;;;;40.12;33.49;100928.31;4995248;28;20465;-88
2023/03/19 04:06:40;;;;;;;32.20;20.13;;;;;;;40.15;33.70;100930.41;4994640;28;20451;-88
2023/03/19 04:09:06;;;;;;;30.90;20.43;;;;;;;40.16;33.35;100934.72;4994739;28;20490;-88
2023/03/19 04:11:33;;;;;;;36.97;20.77;;;;;;;40.17;33.66;100943.66;5012294;28;20416;-88
2023/03/19 04:14:00;;;;;;;35.90;23.40;;;;;;;40.06;33.52;100932.31;4993022;28;20456;-88
2023/03/19 04:16:27;;;;;;;31.63;18.93;;;;;;;40.14;33.33;100933.41;4994381;28;20432;-88
2023/03/19 04:18:53;;;;;;;28.87;20.30;;;;;;;40.24;33.16;100933.91;4994728;28;20424;-88
2023/03/19 04:21:20;;;;;;;36.67;20.57;;;;;;;40.17;33.36;100939.03;4994114;28;20475;-87
2023/03/19 04:23:46;;;;;;;25.93;17.93;;;;;;;40.11;33.56;100940.31;4986600;28;20461;-88
2023/03/19 04:26:12;;;;;;;33.53;20.37;;;;;;;40.20;33.48;100945.72;4990810;28;20511;-86
2023/03/19 04:28:38;;;;;;;26.03;20.60;;;;;;;40.19;33.55;100936.78;4994673;28;20944;-86
2023/03/19 04:31:06;;;;;;;27.00;20.00;;;;;;;40.13;33.61;100946.22;4994278;28;20452;-86
2023/03/19 04:33:32;;;;;;;36.00;19.07;;;;;;;40.12;33.53;100944.63;4994353;28;20205;-86
2023/03/19 04:36:00;;;;;;;36.77;18.93;;;;;;;40.23;33.28;100945.91;5009120;28;20523;-86
2023/03/19 04:38:26;;;;;;;28.90;20.70;;;;;;;40.09;33.57;100945.28;5019522;28;20482;-85
2023/03/19 04:40:53;;;;;;;36.73;20.53;;;;;;;40.10;33.95;100944.16;4994332;28;20465;-86
2023/03/19 04:43:20;;;;;;;42.90;21.77;;;;;;;40.10;34.25;100946.88;4990285;28;20513;-86
2023/03/19 04:45:45;;;;;;;31.93;22.50;;;;;;;40.13;33.39;100957.09;4992001;28;20964;-86
2023/03/19 04:48:11;;;;;;;32.00;20.23;;;;;;;40.16;33.48;100955.66;4994436;28;20431;-86
2023/03/19 04:50:39;;;;;;;24.60;19.07;;;;;;;40.18;33.72;100954.22;4994286;28;20428;-86
2023/03/19 04:53:05;;;;;;;29.37;21.57;;;;;;;40.21;33.70;100959.03;4994316;28;20211;-86
2023/03/19 04:55:31;;;;;;;35.37;19.20;;;;;;;40.20;33.86;100962.03;5015037;28;20426;-87
2023/03/19 04:57:57;;;;;;;29.47;20.10;;;;;;;40.22;33.58;100963.34;4997833;28;20810;-86
2023/03/19 05:00:23;;;;;;;26.90;20.17;;;;;;;40.20;33.75;100968.25;4993808;28;20420;-87
2023/03/19 05:02:49;;;;;;;28.13;21.77;;;;;;;40.20;33.45;100972.91;4977932;28;20452;-86
2023/03/19 05:05:15;;;;;;;29.53;20.10;;;;;;;40.29;33.37;100971.81;5000683;28;20420;-86
2023/03/19 05:07:41;;;;;;;30.77;20.47;;;;;;;40.23;33.48;100975.78;4979244;28;20678;-86
2023/03/19 05:10:08;;;;;;;31.83;20.17;;;;;;;40.23;33.28;100975.78;4979594;28;20941;-87
2023/03/19 05:12:34;;;;;;;38.33;24.60;;;;;;;40.22;33.59;100976.91;4970249;28;20501;-86
2023/03/19 05:15:01;;;;;;;35.70;21.23;;;;;;;40.26;33.32;100977.06;4975897;28;20555;-85
2023/03/19 05:17:27;;;;;;;28.23;21.70;;;;;;;40.31;33.46;100973.41;4975290;28;20418;-87
2023/03/19 05:19:54;;;;;;;33.83;22.40;;;;;;;40.23;33.35;100973.06;4977422;28;20429;-86
2023/03/19 05:22:21;;;;;;;33.50;19.37;;;;;;;40.20;33.75;100968.25;4975469;28;20826;-86
2023/03/19 05:24:47;;;;;;;29.30;19.60;;;;;;;40.22;33.56;100962.53;4975104;28;20950;-86
2023/03/19 05:27:13;;;;;;;27.27;20.77;;;;;;;40.18;33.43;100969.72;4958312;28;20469;-86
2023/03/19 05:29:39;;;;;;;29.37;22.17;;;;;;;40.19;33.88;100982.19;4975688;28;20475;-86
2023/03/19 05:32:06;;;;;;;36.57;21.17;;;;;;;40.22;33.81;100982.34;4975245;28;20418;-87
2023/03/19 05:34:32;;;;;;;30.43;20.13;;;;;;;40.21;33.69;100985.41;4978552;28;20456;-86
2023/03/19 05:36:58;;;;;;;31.97;20.80;;;;;;;40.09;34.14;100977.88;4976123;28;20465;-86
2023/03/19 05:39:24;;;;;;;33.00;20.27;;;;;;;40.03;33.66;100987.28;4957795;28;20690;-87
2023/03/19 05:41:50;;;;;;;31.60;19.00;;;;;;;40.05;34.05;100982.34;4974007;28;20897;-86
2023/03/19 05:44:16;;;;;;;39.17;23.60;;;;;;;40.07;34.01;100985.53;4977803;28;20441;-86
2023/03/19 05:46:42;;;;;;;33.00;19.40;;;;;;;40.12;34.00;100992.72;4974653;28;20199;-86
2023/03/19 05:49:09;;;;;;;37.17;20.80;;;;;;;40.07;34.12;100990.97;4961553;28;20232;-86
2023/03/19 05:51:35;;;;;;;35.30;22.23;;;;;;;40.17;33.84;100998.00;4957339;28;20966;-86
2023/03/19 05:54:01;;;;;;;28.40;22.90;;;;;;;40.22;33.52;101000.59;4975209;28;20425;-86
2023/03/19 05:56:28;;;;;;;39.60;21.43;;;;;;;40.20;33.63;101005.50;4975543;28;20802;-87
2023/03/19 05:58:55;;;;;;;35.43;22.23;;;;;;;40.27;33.72;101014.03;4958609;28;20460;-86
2023/03/19 06:01:22;;;;;;;30.60;20.80;;;;;;;40.21;34.10;101018.00;4957250;28;20458;-86
2023/03/19 06:03:47;;;;;;;31.60;22.43;;;;;;;40.15;33.78;101019.28;4976284;28;20422;-87
2023/03/19 06:06:14;;;;;;;32.13;22.67;;;;;;;40.07;33.96;101022.78;4974691;28;20429;-86
2023/03/19 06:08:41;;;;;;;38.33;24.73;;;;;;;39.97;34.25;101034.72;4977297;28;20600;-86
2023/03/19 06:11:08;;;;;;;39.30;25.33;;;;;;;39.91;34.17;101025.91;4972872;28;20457;-86
2023/03/19 06:13:34;;;;;;;37.07;27.97;;;;;;;39.96;34.45;101028.50;4988865;28;20476;-86
2023/03/19 06:16:00;;;;;;;35.27;27.27;;;;;;;39.97;34.12;101032.00;4993651;28;20417;-86
2023/03/19 06:18:27;;;;;;;38.20;25.50;;;;;;;39.99;34.29;101033.28;4995787;28;20425;-86
2023/03/19 06:20:53;;;;;;;37.47;24.50;;;;;;;40.06;34.25;101038.28;4978313;28;20465;-86
2023/03/19 06:23:19;;;;;;;37.80;23.90;;;;;;;40.06;34.16;101043.69;4997423;28;20440;-86
2023/03/19 06:25:45;;;;;;;32.10;23.20;;;;;;;40.13;34.39;101048.66;5012723;28;20866;-86
2023/03/19 06:28:11;;;;;;;34.30;26.43;;;;;;;40.09;34.34;101045.00;5013750;28;20964;-86
2023/03/19 06:30:37;;;;;;;39.27;25.37;;;;;;;40.12;34.28;101050.59;4996869;28;20475;-86
2023/03/19 06:33:03;;;;;;;41.83;27.80;;;;;;;40.18;34.21;101057.47;5010866;28;20802;-85
2023/03/19 06:35:29;;;;;;;56.40;25.23;;;;;;;40.31;33.68;101060.38;5001207;28;20570;-88
2023/03/19 06:37:55;;;;;;;31.97;24.90;;;;;;;40.34;33.83;101065.19;4997553;28;20456;-86
2023/03/19 06:40:21;;;;;;;47.10;26.00;;;;;;;40.32;34.26;101067.41;4996099;28;20421;-85
2023/03/19 06:42:48;;;;;;;32.57;23.20;;;;;;;40.30;34.08;101067.72;4995646;28;20919;-86
2023/03/19 06:45:20;;;;;;;37.20;24.30;;;;;;;40.24;34.27;101072.50;4996002;28;20416;-86
2023/03/19 06:47:46;;;;;;;36.80;23.07;;;;;;;40.21;34.50;101075.88;4995806;28;20452;-88
2023/03/19 06:50:15;;;;;;;36.23;23.37;;;;;;;40.25;34.08;101079.53;4995877;28;20429;-88
2023/03/19 06:52:41;;;;;;;42.50;25.00;;;;;;;40.31;33.95;101085.63;4999670;28;20455;-88
2023/03/19 06:55:08;;;;;;;43.57;25.37;;;;;;;40.38;34.00;101085.16;4995316;28;20436;-86
2023/03/19 06:57:35;;;;;;;46.20;32.83;;;;;;;40.39;33.95;101087.56;4983352;28;20447;-86
2023/03/19 07:00:01;;;;;;;57.77;39.70;;;;;;;40.40;34.19;101082.94;4995010;28;20446;-86
2023/03/19 07:02:27;;;;;;;58.27;38.60;;;;;;;40.37;34.44;101083.56;4995559;28;20539;-86
2023/03/19 07:04:53;;;;;;;56.73;40.60;;;;;;;40.38;33.83;101077.00;4986221;28;20523;-87
2023/03/19 07:07:19;;;;;;;65.23;42.57;;;;;;;40.46;33.80;101079.75;5010841;28;20662;-87
2023/03/19 07:09:45;;;;;;;71.80;41.97;;;;;;;40.45;33.58;101091.72;5011878;28;20440;-85
2023/03/19 07:12:11;;;;;;;56.47;35.90;;;;;;;40.43;33.84;101099.41;4995494;28;20460;-86
2023/03/19 07:14:37;;;;;;;55.67;32.77;;;;;;;40.52;34.16;101091.31;4992615;28;20420;-87
2023/03/19 07:17:03;;;;;;;46.23;26.57;;;;;;;40.53;33.83;101092.88;5003588;28;20443;-86
2023/03/19 07:19:29;;;;;;;52.97;29.30;;;;;;;40.61;33.37;101092.09;4997486;28;20789;-87
2023/03/19 07:21:55;;;;;;;36.20;28.43;;;;;;;40.59;33.28;101094.34;4990254;28;20550;-86
2023/03/19 07:24:21;;;;;;;44.13;28.50;;;;;;;40.59;33.23;101099.78;4996915;28;20432;-89
2023/03/19 07:26:47;;;;;;;40.40;31.73;;;;;;;40.66;32.77;101105.53;5006222;28;20504;-85
2023/03/19 07:29:13;;;;;;;46.73;29.50;;;;;;;40.66;32.87;101113.69;4992438;28;20584;-87
2023/03/19 07:31:39;;;;;;;41.63;28.33;;;;;;;40.71;32.41;101112.75;4996168;28;20416;-87
2023/03/19 07:34:05;;;;;;;42.60;26.20;;;;;;;40.81;32.29;101109.69;4991324;28;20469;-87
2023/03/19 07:36:32;;;;;;;34.30;20.90;;;;;;;40.91;32.07;101108.59;4997196;28;20460;-83
2023/03/19 07:38:57;;;;;;;33.27;19.30;;;;;;;40.95;32.00;101112.28;4998304;28;20933;-86
2023/03/19 07:41:23;;;;;;;30.07;17.40;;;;;;;41.06;31.89;101108.09;4992959;28;20458;-86
2023/03/19 07:43:50;;;;;;;31.43;18.00;;;;;;;41.07;32.02;101117.88;4986212;28;20426;-89
2023/03/19 07:46:16;;;;;;;29.97;17.70;;;;;;;41.11;31.93;101118.00;5011050;28;20416;-90
2023/03/19 07:48:42;;;;;;;30.80;17.83;;;;;;;41.11;31.77;101121.53;5007788;28;20504;-86
2023/03/19 07:51:09;;;;;;;25.00;16.10;;;;;;;41.12;31.93;101134.00;5014896;28;20472;-85
2023/03/19 07:53:35;;;;;;;29.77;17.80;;;;;;;41.08;31.63;101135.81;5002513;28;20448;-86
2023/03/19 07:56:01;;;;;;;30.63;17.67;;;;;;;41.16;31.64;101140.44;4996650;28;20453;-86
2023/03/19 07:58:27;;;;;;;28.83;16.20;;;;;;;41.04;31.78;101141.06;4998220;28;20464;-77
2023/03/19 08:00:53;;;;;;;37.07;17.57;;;;;;;41.13;31.22;101141.09;5013701;28;20464;-83
2023/03/19 08:03:19;;;;;;;29.53;17.90;;;;;;;41.17;31.60;101144.75;5009926;28;20428;-84
2023/03/19 08:05:48;;;;;;;34.33;18.17;;;;;;;41.23;31.14;101146.16;5009996;28;20424;-86
2023/03/19 08:08:15;;;;;;;30.33;18.10;;;;;;;41.25;31.13;101138.50;5004315;28;20770;-84
2023/03/19 08:10:41;;;;;;;24.27;17.57;;;;;;;41.30;30.94;101140.22;4969579;28;20437;-84
2023/03/19 08:13:07;;;;;;;23.83;17.17;;;;;;;41.22;30.88;101141.84;5005366;28;20855;-83
2023/03/19 08:15:33;;;;;;;34.03;16.30;;;;;;;41.26;30.68;101142.03;4991110;28;20515;-84
2023/03/19 08:18:00;;;;;;;20.50;14.00;;;;;;;41.31;30.29;101144.56;4994433;28;20185;-83
2023/03/19 08:20:26;;;;;;;22.73;14.20;;;;;;;41.33;30.59;101150.53;4994261;28;20458;-85
2023/03/19 08:22:52;;;;;;;33.30;16.07;;;;;;;41.34;30.67;101152.91;4994398;28;20468;-83
2023/03/19 08:25:18;;;;;;;23.40;13.97;;;;;;;41.28;30.93;101142.50;4994306;28;20425;-84
2023/03/19 08:27:44;;;;;;;31.80;15.97;;;;;;;41.36;30.67;101143.63;5012839;28;20916;-84
2023/03/19 08:30:11;;;;;;;28.87;14.30;;;;;;;41.42;31.00;101145.84;4998680;28;20448;-82
2023/03/19 08:32:37;;;;;;;28.03;14.90;;;;;;;41.39;30.59;101135.63;4998046;28;20412;-85
2023/03/19 08:35:04;;;;;;;30.73;15.33;;;;;;;41.43;30.95;101130.31;4997859;28;20455;-85
2023/03/19 08:37:31;;;;;;;21.47;13.07;;;;;;;41.49;30.94;101137.97;4997753;28;20852;-84
2023/03/19 08:39:57;;;;;;;25.00;14.40;;;;;;;41.50;30.99;101138.81;4998340;28;20757;-84
2023/03/19 08:42:23;;;;;;;25.63;13.57;;;;;;;41.53;30.84;101138.94;5015709;28;20470;-84
2023/03/19 08:44:49;;;;;;;27.30;14.87;;;;;;;41.65;30.67;101145.63;4999546;28;20444;-78
2023/03/19 08:47:16;;;;;;;28.90;13.73;;;;;;;41.66;30.84;101153.47;5001686;28;20416;-83
2023/03/19 08:49:41;;;;;;;22.20;15.20;;;;;;;41.60;30.91;101150.13;4993919;28;20418;-87
2023/03/19 08:52:08;;;;;;;23.10;15.67;;;;;;;41.75;30.85;101150.78;5013222;28;20437;-86
2023/03/19 08:54:35;;;;;;;25.97;15.43;;;;;;;41.69;31.11;101141.94;5016467;28;20209;-83
2023/03/19 08:57:01;;;;;;;19.23;14.30;;;;;;;41.79;31.16;101144.31;4981484;28;20422;-83
2023/03/19 08:59:27;;;;;;;25.07;14.37;;;;;;;41.86;30.98;101135.63;4998050;28;20507;-86
2023/03/19 09:01:53;;;;;;;28.57;14.57;;;;;;;41.84;30.93;101138.69;4996800;28;20503;-85
2023/03/19 09:04:20;;;;;;;25.80;13.60;;;;;;;41.84;30.87;101135.16;4996632;28;20451;-87
2023/03/19 09:06:50;;;;;;;22.53;14.20;;;;;;;41.86;30.56;101138.34;4996204;28;20983;-85
2023/03/19 09:09:20;;;;;;;17.67;13.27;;;;;;;41.70;30.72;101140.81;4988983;28;20417;-81
2023/03/19 09:11:47;;;;;;;23.23;14.10;;;;;;;41.71;30.71;101142.41;4989732;28;20431;-81
2023/03/19 09:14:19;;;;;;;26.03;13.93;;;;;;;41.64;30.35;101135.88;5000596;28;20847;-74
2023/03/19 09:16:47;;;;;;;18.10;13.17;;;;;;;41.62;30.60;101133.47;5020777;28;20906;-86
2023/03/19 09:19:18;;;;;;;19.40;15.30;;;;;;;41.64;30.25;101123.03;5021176;28;20417;-75
2023/03/19 09:25:15;;;;;;;20.60;12.80;;;;;;;41.59;30.23;101124.03;5023025;28;20424;-90
2023/03/19 09:27:41;;;;;;;20.50;12.97;;;;;;;41.60;30.63;101130.25;4994467;28;20463;-82
2023/03/19 09:30:10;;;;;;;24.03;14.70;;;;;;;41.67;31.26;101133.28;4993923;28;20426;-82
2023/03/19 09:32:36;;;;;;;27.17;15.80;;;;;;;41.72;30.53;101126.84;4993708;28;20433;-82
2023/03/19 09:35:13;;;;;;;17.77;13.97;;;;;;;41.73;30.29;101123.00;5009578;28;20423;-79
2023/03/19 09:37:39;;;;;;;22.23;13.90;;;;;;;41.74;30.54;101119.16;5006025;28;20424;-83
2023/03/19 09:40:06;;;;;;;19.37;14.57;;;;;;;41.71;30.69;101128.78;4978457;28;20422;-82
2023/03/19 09:42:52;;;;;;;21.53;14.80;;;;;;;41.69;30.15;101125.59;4981230;28;20506;-79
2023/03/19 09:45:19;;;;;;;21.10;15.20;;;;;;;41.71;30.60;101134.22;4986031;28;20435;-83
2023/03/19 09:47:48;;;;;;;20.97;14.50;;;;;;;41.78;30.89;101125.59;4977578;28;20457;-83
2023/03/19 09:50:23;;;;;;;22.57;15.30;;;;;;;41.78;30.39;101117.41;4983580;28;20925;-84
2023/03/19 09:53:03;;;;;;;21.30;16.10;;;;;;;41.84;30.42;101122.34;5013615;28;20435;-81
2023/03/19 09:55:46;;;;;;;26.33;16.33;;;;;;;41.86;30.55;101106.47;5013887;28;20416;-79
2023/03/19 09:58:21;;;;;;;26.43;17.37;;;;;;;41.89;30.55;101099.56;4982321;28;20429;-82
2023/03/19 10:00:52;;;;;;;21.30;14.90;;;;;;;41.86;30.55;101097.50;5002769;28;20545;-82
2023/03/19 10:03:30;;;;;;;19.30;13.77;;;;;;;41.81;30.26;101093.03;4995264;28;20520;-81
2023/03/19 10:06:15;;;;;;;22.43;14.30;;;;;;;41.88;30.51;101095.25;4993804;28;20447;-80
2023/03/19 10:09:06;;;;;;;23.43;14.33;;;;;;;41.95;30.33;101089.28;4994336;28;20519;-81
2023/03/19 10:12:01;;;;;;;22.87;14.77;;;;;;;41.91;30.18;101091.06;5002259;28;20435;-81
2023/03/19 10:14:55;;;;;;;32.60;15.60;;;;;;;41.99;30.57;101085.59;4988703;28;20446;-79
2023/03/19 10:17:29;;;;;;;26.40;14.97;;;;;;;42.01;30.70;101083.31;4980966;28;20429;-81
2023/03/19 10:20:15;;;;;;;21.30;14.90;;;;;;;41.92;30.53;101076.31;5003741;28;20425;-80
2023/03/19 10:22:48;;;;;;;22.67;13.40;;;;;;;42.10;30.31;101070.41;4988340;28;20471;-80
2023/03/19 10:25:20;;;;;;;25.77;14.03;;;;;;;42.12;30.34;101057.28;4977614;28;20425;-82
2023/03/19 10:27:57;;;;;;;22.53;14.57;;;;;;;41.99;30.61;101049.34;5005459;28;20457;-86
2023/03/19 10:30:37;;;;;;;29.13;16.83;;;;;;;42.13;30.68;101058.88;4978917;28;20452;-86
2023/03/19 10:33:35;;;;;;;22.40;15.20;;;;;;;42.09;30.54;101052.47;5008827;28;20518;-80
2023/03/19 10:36:08;;;;;;;24.60;13.77;;;;;;;42.22;30.49;101053.38;4987706;28;20421;-81
2023/03/19 10:38:40;;;;;;;25.57;15.57;;;;;;;42.12;29.98;101053.75;4989181;28;20504;-81
2023/03/19 10:41:47;;;;;;;18.60;14.17;;;;;;;42.18;30.15;101049.75;4977599;28;20453;-82
2023/03/19 10:44:35;;;;;;;24.80;14.03;;;;;;;42.24;30.50;101048.41;4973113;28;20421;-82
2023/03/19 10:47:16;;;;;;;20.20;15.93;;;;;;;42.22;30.38;101038.94;4986051;28;20424;-79
2023/03/19 10:49:42;;;;;;;29.50;18.00;;;;;;;42.23;30.25;101037.81;4990777;28;20428;-81
2023/03/19 10:52:23;;;;;;;26.03;15.53;;;;;;;42.30;30.45;101029.94;4982308;28;20432;-80
2023/03/19 10:54:54;;;;;;;32.33;14.37;;;;;;;42.30;30.00;101036.19;4997818;28;20421;-78
2023/03/19 10:57:25;;;;;;;22.23;17.00;;;;;;;42.16;30.63;101023.91;5001866;28;20417;-83
2023/03/19 11:03:47;;;;;;;20.77;15.57;;;;;;;42.20;30.12;101017.50;5019299;28;20607;-85
2023/03/19 11:06:39;;;;;;;24.80;16.73;;;;;;;42.03;30.72;101014.84;5006822;28;20817;-80
2023/03/19 11:09:39;;;;;;;22.27;14.93;;;;;;;42.21;30.58;101029.97;5000424;28;20424;-81
2023/03/19 11:15:38;;;;;;;23.40;15.00;;;;;;;42.29;30.42;101018.19;5027100;28;20491;-92
2023/03/19 11:18:39;;;;;;;26.80;13.63;;;;;;;42.32;30.29;101012.09;4985143;28;20520;-82
2023/03/19 11:21:26;;;;;;;23.03;13.63;;;;;;;42.37;29.67;101013.84;5009068;28;20477;-88
2023/03/19 11:26:53;;;;;;;24.63;13.10;;;;;;;42.50;29.29;101022.84;5004321;28;20787;-85
2023/03/19 11:29:20;;;;;;;21.30;13.83;;;;;;;42.52;29.12;101015.94;4991827;28;20427;-87
2023/03/19 11:31:51;;;;;;;21.20;13.23;;;;;;;42.53;28.98;101019.44;4991956;28;20429;-86